Sunday, June 17, 2018, 10:06 PM EDT
Back to Local

KGON, Groton/new London Airport

Location: Groton, CT, United States Lat: 41.333
Local Time: 10:06 PM EDT ( 2:06 GMT) Lon: -72.05
Time Zone: US/Eastern Elev: 9 ft

Show me the last for .
Show Decoded

2018-06-17 20:56 METAR KGON 180056Z 16004KT 10SM CLR 19/15 A3006 RMK AO2 SLP180 T01940150 =
2018-06-17 19:56 METAR KGON 172356Z 00000KT 10SM CLR 21/14 A3007 RMK AO2 SLP182 T02110144 10239
                 20206 55001 =
2018-06-17 18:56 METAR KGON 172256Z 00000KT 10SM CLR 21/16 A3007 RMK AO2 SLP182 T02110156 =
2018-06-17 17:56 METAR KGON 172156Z 20005KT 10SM CLR 21/14 A3007 RMK AO2 SLP181 T02110144 =
2018-06-17 16:56 METAR KGON 172056Z 19007KT 10SM CLR 22/14 A3007 RMK AO2 SLP183 T02170144 53003 =
2018-06-17 15:56 METAR KGON 171956Z 20007KT 10SM CLR 22/16 A3007 RMK AO2 SLP182 T02220156 =
2018-06-17 14:56 METAR KGON 171856Z 21009KT 10SM CLR 22/16 A3006 RMK AO2 SLP179 T02220161 =
2018-06-17 13:56 METAR KGON 171756Z 20006KT 10SM CLR 22/16 A3006 RMK AO2 SLP179 T02220161 10261
                 20206 56008 =
2018-06-17 12:56 METAR KGON 171656Z 19006KT 10SM CLR 21/15 A3006 RMK AO2 SLP179 T02060150 =
2018-06-17 11:56 METAR KGON 171556Z 19009KT 10SM CLR 21/14 A3008 RMK AO2 SLP186 T02060144 =
2018-06-17 10:56 METAR KGON 171456Z 19007KT 10SM CLR 22/14 A3009 RMK AO2 SLP188 T02170144 53007 =
2018-06-17 09:56 METAR KGON 171356Z 20005KT 10SM CLR 24/17 A3007 RMK AO2 SLP182 T02440167 =
2018-06-17 08:56 METAR KGON 171256Z 00000KT 10SM CLR 24/14 A3007 RMK AO2 SLP181 T02390144 =
2018-06-17 07:56 METAR KGON 171156Z 00000KT 10SM CLR 21/13 A3007 RMK AO2 SLP181 T02060133 10206
                 20128 51015 =
2018-06-17 06:56 METAR KGON 171056Z 33003KT 10SM CLR 17/12 A3006 RMK AO2 SLP178 T01720122 =
2018-06-17 05:56 METAR KGON 170956Z AUTO 01003KT 10SM CLR 13/12 A3004 RMK AO2 SLP172 T01330117 =
2018-06-17 04:56 METAR KGON 170856Z AUTO 00000KT 10SM CLR 14/11 A3002 RMK AO2 SLP166 T01390111
                 51001 =
2018-06-17 03:56 METAR KGON 170756Z AUTO 00000KT 10SM CLR 17/11 A3002 RMK AO2 SLP166 T01720106 =
2018-06-17 02:56 METAR KGON 170656Z AUTO 26004KT 10SM CLR 17/11 A3002 RMK AO2 SLP166 T01720106 =
2018-06-17 01:56 METAR KGON 170556Z AUTO 27004KT 10SM CLR 18/11 A3002 RMK AO2 SLP165 T01780106
                 10206 20161 50002 =
2018-06-17 00:56 METAR KGON 170456Z AUTO 29004KT 10SM CLR 18/11 A3002 RMK AO2 SLP167 T01780111
                 402610117 =
2018-06-16 23:56 METAR KGON 170356Z AUTO 31003KT 10SM CLR 18/12 A3003 RMK AO2 SLP169 T01780122 =
2018-06-16 22:56 METAR KGON 170256Z AUTO 25005KT 10SM CLR 19/13 A3002 RMK AO2 SLP164 T01890128
                 51016 =

Support USWX by starting your Amazon purchase here.